sensor_id;sensor_type;location;lat;lon;timestamp;P1;durP1;ratioP1;P2;durP2;ratioP2
4575;SDS011;2300;51.874;8.430;2023-01-26T00:01:31;143.13;;;56.90;;
4575;SDS011;2300;51.874;8.430;2023-01-26T00:03:58;146.63;;;58.13;;
4575;SDS011;2300;51.874;8.430;2023-01-26T00:06:24;140.27;;;57.93;;
4575;SDS011;2300;51.874;8.430;2023-01-26T00:08:51;143.03;;;58.93;;
4575;SDS011;2300;51.874;8.430;2023-01-26T00:11:21;146.97;;;58.00;;
4575;SDS011;2300;51.874;8.430;2023-01-26T00:13:50;146.57;;;60.13;;
4575;SDS011;2300;51.874;8.430;2023-01-26T00:16:17;142.53;;;60.03;;
4575;SDS011;2300;51.874;8.430;2023-01-26T00:18:45;144.77;;;59.33;;
4575;SDS011;2300;51.874;8.430;2023-01-26T00:21:12;143.57;;;60.17;;
4575;SDS011;2300;51.874;8.430;2023-01-26T00:23:40;143.83;;;57.47;;
4575;SDS011;2300;51.874;8.430;2023-01-26T00:26:07;143.87;;;56.97;;
4575;SDS011;2300;51.874;8.430;2023-01-26T00:28:36;138.70;;;56.13;;
4575;SDS011;2300;51.874;8.430;2023-01-26T00:31:03;139.77;;;53.73;;
4575;SDS011;2300;51.874;8.430;2023-01-26T00:33:30;131.47;;;54.33;;
4575;SDS011;2300;51.874;8.430;2023-01-26T00:35:57;138.87;;;53.83;;
4575;SDS011;2300;51.874;8.430;2023-01-26T00:38:24;136.73;;;55.77;;
4575;SDS011;2300;51.874;8.430;2023-01-26T00:40:50;145.77;;;53.97;;
4575;SDS011;2300;51.874;8.430;2023-01-26T00:43:17;141.77;;;54.87;;
4575;SDS011;2300;51.874;8.430;2023-01-26T00:45:44;133.87;;;52.97;;
4575;SDS011;2300;51.874;8.430;2023-01-26T00:48:11;135.07;;;54.50;;
4575;SDS011;2300;51.874;8.430;2023-01-26T00:50:37;136.97;;;54.60;;
4575;SDS011;2300;51.874;8.430;2023-01-26T00:53:04;137.03;;;54.80;;
4575;SDS011;2300;51.874;8.430;2023-01-26T00:55:31;137.33;;;55.53;;
4575;SDS011;2300;51.874;8.430;2023-01-26T00:57:57;135.57;;;53.60;;
4575;SDS011;2300;51.874;8.430;2023-01-26T01:00:24;141.23;;;54.90;;
4575;SDS011;2300;51.874;8.430;2023-01-26T01:02:52;147.77;;;54.30;;
4575;SDS011;2300;51.874;8.430;2023-01-26T01:05:20;126.93;;;50.10;;
4575;SDS011;2300;51.874;8.430;2023-01-26T01:07:46;142.37;;;54.67;;
4575;SDS011;2300;51.874;8.430;2023-01-26T01:10:13;136.57;;;52.00;;
4575;SDS011;2300;51.874;8.430;2023-01-26T01:12:40;133.83;;;53.43;;
4575;SDS011;2300;51.874;8.430;2023-01-26T01:15:07;142.90;;;50.10;;
4575;SDS011;2300;51.874;8.430;2023-01-26T01:17:34;147.40;;;55.27;;
4575;SDS011;2300;51.874;8.430;2023-01-26T01:20:02;134.63;;;54.60;;
4575;SDS011;2300;51.874;8.430;2023-01-26T01:22:30;138.77;;;49.40;;
4575;SDS011;2300;51.874;8.430;2023-01-26T01:24:56;136.67;;;49.43;;
4575;SDS011;2300;51.874;8.430;2023-01-26T01:27:23;135.43;;;52.07;;
4575;SDS011;2300;51.874;8.430;2023-01-26T01:29:49;145.13;;;53.80;;
4575;SDS011;2300;51.874;8.430;2023-01-26T01:32:16;149.63;;;52.77;;
4575;SDS011;2300;51.874;8.430;2023-01-26T01:34:45;139.97;;;52.93;;
4575;SDS011;2300;51.874;8.430;2023-01-26T01:37:13;153.40;;;56.50;;
4575;SDS011;2300;51.874;8.430;2023-01-26T01:39:39;146.30;;;54.13;;
4575;SDS011;2300;51.874;8.430;2023-01-26T01:42:05;146.07;;;53.93;;
4575;SDS011;2300;51.874;8.430;2023-01-26T01:44:33;158.83;;;56.10;;
4575;SDS011;2300;51.874;8.430;2023-01-26T01:47:01;146.53;;;57.73;;
4575;SDS011;2300;51.874;8.430;2023-01-26T01:49:30;148.80;;;55.80;;
4575;SDS011;2300;51.874;8.430;2023-01-26T01:52:00;150.27;;;55.73;;
4575;SDS011;2300;51.874;8.430;2023-01-26T01:54:33;155.80;;;59.53;;
4575;SDS011;2300;51.874;8.430;2023-01-26T01:57:05;147.10;;;57.53;;
4575;SDS011;2300;51.874;8.430;2023-01-26T01:59:40;151.07;;;59.90;;
4575;SDS011;2300;51.874;8.430;2023-01-26T02:02:09;152.10;;;59.70;;
4575;SDS011;2300;51.874;8.430;2023-01-26T02:04:36;159.63;;;58.27;;
4575;SDS011;2300;51.874;8.430;2023-01-26T02:07:03;156.17;;;58.70;;
4575;SDS011;2300;51.874;8.430;2023-01-26T02:09:30;160.53;;;61.17;;
4575;SDS011;2300;51.874;8.430;2023-01-26T02:12:20;149.60;;;59.30;;
4575;SDS011;2300;51.874;8.430;2023-01-26T02:14:51;151.43;;;60.63;;
4575;SDS011;2300;51.874;8.430;2023-01-26T02:17:18;146.37;;;59.83;;
4575;SDS011;2300;51.874;8.430;2023-01-26T02:19:47;147.47;;;58.30;;
4575;SDS011;2300;51.874;8.430;2023-01-26T02:22:21;150.10;;;58.13;;
4575;SDS011;2300;51.874;8.430;2023-01-26T02:25:00;152.97;;;59.80;;
4575;SDS011;2300;51.874;8.430;2023-01-26T02:27:33;165.50;;;60.47;;
4575;SDS011;2300;51.874;8.430;2023-01-26T02:29:59;168.53;;;61.83;;
4575;SDS011;2300;51.874;8.430;2023-01-26T02:32:28;170.67;;;65.27;;
4575;SDS011;2300;51.874;8.430;2023-01-26T02:34:55;173.17;;;61.93;;
4575;SDS011;2300;51.874;8.430;2023-01-26T02:37:22;167.93;;;60.63;;
4575;SDS011;2300;51.874;8.430;2023-01-26T02:39:51;168.40;;;61.63;;
4575;SDS011;2300;51.874;8.430;2023-01-26T02:42:23;175.23;;;63.60;;
4575;SDS011;2300;51.874;8.430;2023-01-26T02:45:07;168.07;;;62.67;;
4575;SDS011;2300;51.874;8.430;2023-01-26T02:47:35;170.60;;;60.53;;
4575;SDS011;2300;51.874;8.430;2023-01-26T02:50:02;179.07;;;62.47;;
4575;SDS011;2300;51.874;8.430;2023-01-26T02:52:28;176.67;;;62.67;;
4575;SDS011;2300;51.874;8.430;2023-01-26T02:54:55;182.70;;;64.30;;
4575;SDS011;2300;51.874;8.430;2023-01-26T02:57:40;171.13;;;62.80;;
4575;SDS011;2300;51.874;8.430;2023-01-26T03:00:09;162.77;;;63.17;;
4575;SDS011;2300;51.874;8.430;2023-01-26T03:02:38;178.03;;;67.60;;
4575;SDS011;2300;51.874;8.430;2023-01-26T03:05:06;178.23;;;64.23;;
4575;SDS011;2300;51.874;8.430;2023-01-26T03:07:33;177.07;;;66.03;;
4575;SDS011;2300;51.874;8.430;2023-01-26T03:10:01;184.37;;;65.83;;
4575;SDS011;2300;51.874;8.430;2023-01-26T03:12:29;180.40;;;65.63;;
4575;SDS011;2300;51.874;8.430;2023-01-26T03:14:55;191.23;;;69.60;;
4575;SDS011;2300;51.874;8.430;2023-01-26T03:17:37;174.80;;;66.43;;
4575;SDS011;2300;51.874;8.430;2023-01-26T03:20:04;175.53;;;65.50;;
4575;SDS011;2300;51.874;8.430;2023-01-26T03:22:49;187.27;;;64.57;;
4575;SDS011;2300;51.874;8.430;2023-01-26T03:25:33;190.50;;;68.07;;
4575;SDS011;2300;51.874;8.430;2023-01-26T03:28:18;199.90;;;66.13;;
4575;SDS011;2300;51.874;8.430;2023-01-26T03:30:46;183.77;;;61.90;;
4575;SDS011;2300;51.874;8.430;2023-01-26T03:33:14;208.43;;;71.50;;
4575;SDS011;2300;51.874;8.430;2023-01-26T03:35:41;194.43;;;65.47;;
4575;SDS011;2300;51.874;8.430;2023-01-26T03:38:07;206.53;;;70.30;;
4575;SDS011;2300;51.874;8.430;2023-01-26T03:40:34;193.87;;;67.60;;
4575;SDS011;2300;51.874;8.430;2023-01-26T03:43:18;202.83;;;67.63;;
4575;SDS011;2300;51.874;8.430;2023-01-26T03:46:02;203.30;;;66.97;;
4575;SDS011;2300;51.874;8.430;2023-01-26T03:48:47;206.70;;;73.00;;
4575;SDS011;2300;51.874;8.430;2023-01-26T03:51:32;210.17;;;70.73;;
4575;SDS011;2300;51.874;8.430;2023-01-26T03:54:16;208.47;;;73.93;;
4575;SDS011;2300;51.874;8.430;2023-01-26T03:57:00;201.23;;;69.57;;
4575;SDS011;2300;51.874;8.430;2023-01-26T03:59:26;208.53;;;72.23;;
4575;SDS011;2300;51.874;8.430;2023-01-26T04:02:03;202.13;;;68.17;;
4575;SDS011;2300;51.874;8.430;2023-01-26T04:04:49;201.73;;;68.33;;
4575;SDS011;2300;51.874;8.430;2023-01-26T04:07:34;206.70;;;67.60;;
4575;SDS011;2300;51.874;8.430;2023-01-26T04:10:18;197.40;;;66.80;;
4575;SDS011;2300;51.874;8.430;2023-01-26T04:12:44;206.53;;;68.40;;
4575;SDS011;2300;51.874;8.430;2023-01-26T04:15:28;207.60;;;67.67;;
4575;SDS011;2300;51.874;8.430;2023-01-26T04:18:12;195.53;;;66.17;;
4575;SDS011;2300;51.874;8.430;2023-01-26T04:20:58;202.70;;;68.20;;
4575;SDS011;2300;51.874;8.430;2023-01-26T04:23:44;199.53;;;70.87;;
4575;SDS011;2300;51.874;8.430;2023-01-26T04:26:11;204.80;;;70.83;;
4575;SDS011;2300;51.874;8.430;2023-01-26T04:28:38;212.87;;;70.70;;
4575;SDS011;2300;51.874;8.430;2023-01-26T04:31:04;204.33;;;71.97;;
4575;SDS011;2300;51.874;8.430;2023-01-26T04:33:31;219.67;;;73.97;;
4575;SDS011;2300;51.874;8.430;2023-01-26T04:36:02;215.83;;;73.80;;
4575;SDS011;2300;51.874;8.430;2023-01-26T04:38:29;210.67;;;70.60;;
4575;SDS011;2300;51.874;8.430;2023-01-26T04:40:56;200.83;;;68.00;;
4575;SDS011;2300;51.874;8.430;2023-01-26T04:43:22;220.93;;;73.70;;
4575;SDS011;2300;51.874;8.430;2023-01-26T04:45:55;217.90;;;70.60;;
4575;SDS011;2300;51.874;8.430;2023-01-26T04:48:23;207.47;;;69.40;;
4575;SDS011;2300;51.874;8.430;2023-01-26T04:50:52;222.40;;;72.67;;
4575;SDS011;2300;51.874;8.430;2023-01-26T04:53:20;218.37;;;72.93;;
4575;SDS011;2300;51.874;8.430;2023-01-26T04:55:47;228.00;;;77.97;;
4575;SDS011;2300;51.874;8.430;2023-01-26T04:58:13;213.80;;;71.47;;
4575;SDS011;2300;51.874;8.430;2023-01-26T05:00:40;219.00;;;73.77;;
4575;SDS011;2300;51.874;8.430;2023-01-26T05:03:06;210.77;;;72.40;;
4575;SDS011;2300;51.874;8.430;2023-01-26T05:05:34;213.20;;;70.93;;
4575;SDS011;2300;51.874;8.430;2023-01-26T05:08:00;210.90;;;68.37;;
4575;SDS011;2300;51.874;8.430;2023-01-26T05:10:28;206.43;;;67.60;;
4575;SDS011;2300;51.874;8.430;2023-01-26T05:12:55;208.57;;;70.47;;
4575;SDS011;2300;51.874;8.430;2023-01-26T05:15:21;205.13;;;74.43;;
4575;SDS011;2300;51.874;8.430;2023-01-26T05:17:48;207.00;;;70.50;;
4575;SDS011;2300;51.874;8.430;2023-01-26T05:20:15;205.87;;;71.93;;
4575;SDS011;2300;51.874;8.430;2023-01-26T05:22:41;205.57;;;71.20;;
4575;SDS011;2300;51.874;8.430;2023-01-26T05:25:08;188.33;;;67.33;;
4575;SDS011;2300;51.874;8.430;2023-01-26T05:27:37;200.23;;;69.73;;
4575;SDS011;2300;51.874;8.430;2023-01-26T05:30:03;200.07;;;69.80;;
4575;SDS011;2300;51.874;8.430;2023-01-26T05:32:30;193.50;;;69.27;;
4575;SDS011;2300;51.874;8.430;2023-01-26T05:34:57;207.07;;;70.23;;
4575;SDS011;2300;51.874;8.430;2023-01-26T05:37:24;190.23;;;66.93;;
4575;SDS011;2300;51.874;8.430;2023-01-26T05:39:51;199.20;;;64.70;;
4575;SDS011;2300;51.874;8.430;2023-01-26T05:42:18;202.60;;;73.87;;
4575;SDS011;2300;51.874;8.430;2023-01-26T05:44:46;185.37;;;60.57;;
4575;SDS011;2300;51.874;8.430;2023-01-26T05:47:12;214.17;;;68.90;;
4575;SDS011;2300;51.874;8.430;2023-01-26T05:49:39;201.13;;;62.90;;
4575;SDS011;2300;51.874;8.430;2023-01-26T05:52:07;196.30;;;62.07;;
4575;SDS011;2300;51.874;8.430;2023-01-26T05:54:34;195.53;;;61.17;;
4575;SDS011;2300;51.874;8.430;2023-01-26T05:57:00;192.13;;;64.83;;
4575;SDS011;2300;51.874;8.430;2023-01-26T05:59:27;200.40;;;68.13;;
4575;SDS011;2300;51.874;8.430;2023-01-26T06:01:55;194.87;;;66.43;;
4575;SDS011;2300;51.874;8.430;2023-01-26T06:04:22;203.63;;;62.77;;
4575;SDS011;2300;51.874;8.430;2023-01-26T06:06:50;207.20;;;67.30;;
4575;SDS011;2300;51.874;8.430;2023-01-26T06:09:17;196.63;;;63.90;;
4575;SDS011;2300;51.874;8.430;2023-01-26T06:11:44;192.37;;;63.67;;
4575;SDS011;2300;51.874;8.430;2023-01-26T06:14:11;192.90;;;64.57;;
4575;SDS011;2300;51.874;8.430;2023-01-26T06:16:37;187.50;;;63.20;;
4575;SDS011;2300;51.874;8.430;2023-01-26T06:19:06;184.20;;;63.60;;
4575;SDS011;2300;51.874;8.430;2023-01-26T06:21:34;196.67;;;64.17;;
4575;SDS011;2300;51.874;8.430;2023-01-26T06:24:01;196.50;;;63.43;;
4575;SDS011;2300;51.874;8.430;2023-01-26T06:26:27;195.77;;;65.10;;
4575;SDS011;2300;51.874;8.430;2023-01-26T06:28:54;187.00;;;65.50;;
4575;SDS011;2300;51.874;8.430;2023-01-26T06:31:21;183.20;;;68.37;;
4575;SDS011;2300;51.874;8.430;2023-01-26T06:33:48;192.47;;;68.37;;
4575;SDS011;2300;51.874;8.430;2023-01-26T06:36:17;188.07;;;68.87;;
4575;SDS011;2300;51.874;8.430;2023-01-26T06:38:44;190.87;;;69.43;;
4575;SDS011;2300;51.874;8.430;2023-01-26T06:41:11;189.23;;;71.97;;
4575;SDS011;2300;51.874;8.430;2023-01-26T06:43:38;192.23;;;68.17;;
4575;SDS011;2300;51.874;8.430;2023-01-26T06:46:04;200.70;;;80.00;;
4575;SDS011;2300;51.874;8.430;2023-01-26T06:48:32;199.23;;;69.10;;
4575;SDS011;2300;51.874;8.430;2023-01-26T06:51:02;184.03;;;63.63;;
4575;SDS011;2300;51.874;8.430;2023-01-26T06:53:33;187.60;;;65.20;;
4575;SDS011;2300;51.874;8.430;2023-01-26T06:56:02;184.03;;;64.33;;
4575;SDS011;2300;51.874;8.430;2023-01-26T06:58:29;262.17;;;120.33;;
4575;SDS011;2300;51.874;8.430;2023-01-26T07:00:56;205.47;;;72.97;;
4575;SDS011;2300;51.874;8.430;2023-01-26T07:03:22;197.30;;;71.17;;
4575;SDS011;2300;51.874;8.430;2023-01-26T07:05:49;193.07;;;75.93;;
4575;SDS011;2300;51.874;8.430;2023-01-26T07:08:15;183.73;;;58.10;;
4575;SDS011;2300;51.874;8.430;2023-01-26T07:10:43;173.77;;;66.10;;
4575;SDS011;2300;51.874;8.430;2023-01-26T07:13:10;193.17;;;70.33;;
4575;SDS011;2300;51.874;8.430;2023-01-26T07:15:36;177.03;;;68.43;;
4575;SDS011;2300;51.874;8.430;2023-01-26T07:18:02;191.70;;;67.53;;
4575;SDS011;2300;51.874;8.430;2023-01-26T07:20:29;185.00;;;67.20;;
4575;SDS011;2300;51.874;8.430;2023-01-26T07:22:57;183.67;;;64.27;;
4575;SDS011;2300;51.874;8.430;2023-01-26T07:25:24;192.23;;;71.63;;
4575;SDS011;2300;51.874;8.430;2023-01-26T07:27:55;186.70;;;66.90;;
4575;SDS011;2300;51.874;8.430;2023-01-26T07:30:22;183.93;;;66.73;;
4575;SDS011;2300;51.874;8.430;2023-01-26T07:32:48;176.77;;;63.47;;
4575;SDS011;2300;51.874;8.430;2023-01-26T07:35:15;187.07;;;67.87;;
4575;SDS011;2300;51.874;8.430;2023-01-26T07:37:42;178.57;;;71.20;;
4575;SDS011;2300;51.874;8.430;2023-01-26T07:40:09;186.17;;;66.90;;
4575;SDS011;2300;51.874;8.430;2023-01-26T07:42:36;188.00;;;77.60;;
4575;SDS011;2300;51.874;8.430;2023-01-26T07:45:05;186.80;;;61.73;;
4575;SDS011;2300;51.874;8.430;2023-01-26T07:47:32;196.23;;;67.13;;
4575;SDS011;2300;51.874;8.430;2023-01-26T07:49:59;182.83;;;64.67;;
4575;SDS011;2300;51.874;8.430;2023-01-26T07:52:26;182.53;;;66.60;;
4575;SDS011;2300;51.874;8.430;2023-01-26T07:54:52;179.10;;;67.57;;
4575;SDS011;2300;51.874;8.430;2023-01-26T07:57:19;193.90;;;67.83;;
4575;SDS011;2300;51.874;8.430;2023-01-26T07:59:45;182.03;;;66.30;;
4575;SDS011;2300;51.874;8.430;2023-01-26T08:02:13;189.07;;;68.00;;
4575;SDS011;2300;51.874;8.430;2023-01-26T08:04:40;182.20;;;67.83;;
4575;SDS011;2300;51.874;8.430;2023-01-26T08:07:06;183.87;;;70.70;;
4575;SDS011;2300;51.874;8.430;2023-01-26T08:09:32;189.30;;;66.67;;
4575;SDS011;2300;51.874;8.430;2023-01-26T08:12:00;172.73;;;66.90;;
4575;SDS011;2300;51.874;8.430;2023-01-26T08:14:26;183.50;;;62.93;;
4575;SDS011;2300;51.874;8.430;2023-01-26T08:16:53;175.53;;;54.50;;
4575;SDS011;2300;51.874;8.430;2023-01-26T08:19:21;188.23;;;66.50;;
4575;SDS011;2300;51.874;8.430;2023-01-26T08:21:47;186.60;;;70.57;;
4575;SDS011;2300;51.874;8.430;2023-01-26T08:24:14;186.73;;;70.90;;
4575;SDS011;2300;51.874;8.430;2023-01-26T08:26:41;188.10;;;67.60;;
4575;SDS011;2300;51.874;8.430;2023-01-26T08:29:07;180.83;;;70.47;;
4575;SDS011;2300;51.874;8.430;2023-01-26T08:31:34;180.97;;;68.63;;
4575;SDS011;2300;51.874;8.430;2023-01-26T08:34:00;178.87;;;64.73;;
4575;SDS011;2300;51.874;8.430;2023-01-26T08:36:28;186.70;;;66.67;;
4575;SDS011;2300;51.874;8.430;2023-01-26T08:38:55;195.87;;;76.50;;
4575;SDS011;2300;51.874;8.430;2023-01-26T08:41:21;194.20;;;72.47;;
4575;SDS011;2300;51.874;8.430;2023-01-26T08:43:47;193.87;;;76.03;;
4575;SDS011;2300;51.874;8.430;2023-01-26T08:46:17;200.47;;;68.37;;
4575;SDS011;2300;51.874;8.430;2023-01-26T08:48:43;182.03;;;65.57;;
4575;SDS011;2300;51.874;8.430;2023-01-26T08:51:10;191.93;;;68.90;;
4575;SDS011;2300;51.874;8.430;2023-01-26T08:53:38;181.00;;;63.27;;
4575;SDS011;2300;51.874;8.430;2023-01-26T08:56:05;175.20;;;63.57;;
4575;SDS011;2300;51.874;8.430;2023-01-26T08:58:33;176.33;;;65.10;;
4575;SDS011;2300;51.874;8.430;2023-01-26T09:01:02;176.43;;;64.53;;
4575;SDS011;2300;51.874;8.430;2023-01-26T09:03:29;182.17;;;63.70;;
4575;SDS011;2300;51.874;8.430;2023-01-26T09:05:57;168.20;;;61.63;;
4575;SDS011;2300;51.874;8.430;2023-01-26T09:08:24;183.60;;;63.70;;
4575;SDS011;2300;51.874;8.430;2023-01-26T09:10:53;164.77;;;62.93;;
4575;SDS011;2300;51.874;8.430;2023-01-26T09:13:19;170.13;;;62.87;;
4575;SDS011;2300;51.874;8.430;2023-01-26T09:15:46;185.37;;;65.13;;
4575;SDS011;2300;51.874;8.430;2023-01-26T09:18:12;177.63;;;65.07;;
4575;SDS011;2300;51.874;8.430;2023-01-26T09:20:39;167.37;;;64.83;;
4575;SDS011;2300;51.874;8.430;2023-01-26T09:23:06;174.60;;;63.97;;
4575;SDS011;2300;51.874;8.430;2023-01-26T09:25:34;166.60;;;66.40;;
4575;SDS011;2300;51.874;8.430;2023-01-26T09:28:05;160.20;;;62.73;;
4575;SDS011;2300;51.874;8.430;2023-01-26T09:30:32;161.90;;;63.17;;
4575;SDS011;2300;51.874;8.430;2023-01-26T09:32:58;157.37;;;61.17;;
4575;SDS011;2300;51.874;8.430;2023-01-26T09:35:25;160.00;;;62.73;;
4575;SDS011;2300;51.874;8.430;2023-01-26T09:37:52;147.03;;;63.93;;
4575;SDS011;2300;51.874;8.430;2023-01-26T09:40:28;163.80;;;74.40;;
4575;SDS011;2300;51.874;8.430;2023-01-26T09:43:06;160.17;;;57.63;;
4575;SDS011;2300;51.874;8.430;2023-01-26T09:45:45;151.70;;;61.47;;
4575;SDS011;2300;51.874;8.430;2023-01-26T09:48:21;154.67;;;60.00;;
4575;SDS011;2300;51.874;8.430;2023-01-26T09:50:58;157.27;;;68.67;;
4575;SDS011;2300;51.874;8.430;2023-01-26T09:53:33;144.20;;;55.90;;
4575;SDS011;2300;51.874;8.430;2023-01-26T09:56:12;146.67;;;61.90;;
4575;SDS011;2300;51.874;8.430;2023-01-26T09:58:44;148.90;;;67.93;;
4575;SDS011;2300;51.874;8.430;2023-01-26T10:01:16;136.50;;;63.50;;
4575;SDS011;2300;51.874;8.430;2023-01-26T10:03:49;138.87;;;64.53;;
4575;SDS011;2300;51.874;8.430;2023-01-26T10:06:23;124.77;;;59.10;;
4575;SDS011;2300;51.874;8.430;2023-01-26T10:08:52;126.57;;;57.53;;
4575;SDS011;2300;51.874;8.430;2023-01-26T10:11:23;121.50;;;52.00;;
4575;SDS011;2300;51.874;8.430;2023-01-26T10:13:59;109.53;;;51.60;;
4575;SDS011;2300;51.874;8.430;2023-01-26T10:16:29;118.80;;;53.03;;
4575;SDS011;2300;51.874;8.430;2023-01-26T10:18:59;111.87;;;55.07;;
4575;SDS011;2300;51.874;8.430;2023-01-26T10:21:29;113.97;;;56.90;;
4575;SDS011;2300;51.874;8.430;2023-01-26T10:24:00;113.63;;;53.50;;
4575;SDS011;2300;51.874;8.430;2023-01-26T10:26:29;113.40;;;60.13;;
4575;SDS011;2300;51.874;8.430;2023-01-26T10:28:59;106.13;;;54.50;;
4575;SDS011;2300;51.874;8.430;2023-01-26T10:31:26;105.97;;;52.17;;
4575;SDS011;2300;51.874;8.430;2023-01-26T10:33:55;110.53;;;53.70;;
4575;SDS011;2300;51.874;8.430;2023-01-26T10:36:23;109.97;;;54.50;;
4575;SDS011;2300;51.874;8.430;2023-01-26T10:38:50;112.97;;;58.17;;
4575;SDS011;2300;51.874;8.430;2023-01-26T10:41:21;118.00;;;56.80;;
4575;SDS011;2300;51.874;8.430;2023-01-26T10:43:51;104.27;;;47.73;;
4575;SDS011;2300;51.874;8.430;2023-01-26T10:46:27;114.83;;;52.50;;
4575;SDS011;2300;51.874;8.430;2023-01-26T10:48:56;112.70;;;49.97;;
4575;SDS011;2300;51.874;8.430;2023-01-26T10:51:26;115.63;;;51.57;;
4575;SDS011;2300;51.874;8.430;2023-01-26T10:54:14;128.70;;;57.63;;
4575;SDS011;2300;51.874;8.430;2023-01-26T10:56:46;115.23;;;50.57;;
4575;SDS011;2300;51.874;8.430;2023-01-26T10:59:17;155.93;;;69.43;;
4575;SDS011;2300;51.874;8.430;2023-01-26T11:01:52;122.37;;;56.83;;
4575;SDS011;2300;51.874;8.430;2023-01-26T11:04:25;123.60;;;60.23;;
4575;SDS011;2300;51.874;8.430;2023-01-26T11:06:53;116.00;;;56.93;;
4575;SDS011;2300;51.874;8.430;2023-01-26T11:09:21;119.07;;;59.37;;
4575;SDS011;2300;51.874;8.430;2023-01-26T11:11:54;118.70;;;58.60;;
4575;SDS011;2300;51.874;8.430;2023-01-26T11:14:23;118.30;;;58.57;;
4575;SDS011;2300;51.874;8.430;2023-01-26T11:16:50;115.40;;;61.10;;
4575;SDS011;2300;51.874;8.430;2023-01-26T11:19:29;112.47;;;54.73;;
4575;SDS011;2300;51.874;8.430;2023-01-26T11:22:05;142.70;;;71.97;;
4575;SDS011;2300;51.874;8.430;2023-01-26T11:24:37;103.67;;;56.77;;
4575;SDS011;2300;51.874;8.430;2023-01-26T11:30:28;99.53;;;53.27;;
4575;SDS011;2300;51.874;8.430;2023-01-26T11:33:06;100.13;;;53.03;;
4575;SDS011;2300;51.874;8.430;2023-01-26T11:35:44;131.43;;;72.77;;
4575;SDS011;2300;51.874;8.430;2023-01-26T11:38:29;150.37;;;74.23;;
4575;SDS011;2300;51.874;8.430;2023-01-26T11:41:04;141.90;;;60.07;;
4575;SDS011;2300;51.874;8.430;2023-01-26T11:43:48;97.07;;;44.17;;
4575;SDS011;2300;51.874;8.430;2023-01-26T11:46:41;84.97;;;41.40;;
4575;SDS011;2300;51.874;8.430;2023-01-26T11:49:21;85.77;;;50.60;;
4575;SDS011;2300;51.874;8.430;2023-01-26T11:52:02;81.43;;;40.57;;
4575;SDS011;2300;51.874;8.430;2023-01-26T11:54:42;87.07;;;51.30;;
4575;SDS011;2300;51.874;8.430;2023-01-26T11:57:40;79.97;;;46.17;;
4575;SDS011;2300;51.874;8.430;2023-01-26T12:00:13;86.30;;;54.70;;
4575;SDS011;2300;51.874;8.430;2023-01-26T12:02:46;86.83;;;54.83;;
4575;SDS011;2300;51.874;8.430;2023-01-26T12:05:21;90.50;;;58.30;;
4575;SDS011;2300;51.874;8.430;2023-01-26T12:07:50;83.07;;;52.30;;
4575;SDS011;2300;51.874;8.430;2023-01-26T12:10:23;85.30;;;56.10;;
4575;SDS011;2300;51.874;8.430;2023-01-26T12:12:56;79.93;;;51.50;;
4575;SDS011;2300;51.874;8.430;2023-01-26T12:15:30;86.30;;;59.87;;
4575;SDS011;2300;51.874;8.430;2023-01-26T12:18:00;84.10;;;58.57;;
4575;SDS011;2300;51.874;8.430;2023-01-26T12:20:41;89.40;;;55.77;;
4575;SDS011;2300;51.874;8.430;2023-01-26T12:23:11;86.33;;;59.57;;
4575;SDS011;2300;51.874;8.430;2023-01-26T12:25:45;90.20;;;54.43;;
4575;SDS011;2300;51.874;8.430;2023-01-26T12:28:17;87.53;;;61.00;;
4575;SDS011;2300;51.874;8.430;2023-01-26T12:30:50;88.93;;;62.73;;
4575;SDS011;2300;51.874;8.430;2023-01-26T12:33:23;85.97;;;60.17;;
4575;SDS011;2300;51.874;8.430;2023-01-26T12:36:01;94.03;;;54.80;;
4575;SDS011;2300;51.874;8.430;2023-01-26T12:38:39;89.13;;;60.63;;
4575;SDS011;2300;51.874;8.430;2023-01-26T12:41:15;88.63;;;55.00;;
4575;SDS011;2300;51.874;8.430;2023-01-26T12:43:52;75.47;;;48.20;;
4575;SDS011;2300;51.874;8.430;2023-01-26T12:46:27;76.67;;;42.73;;
4575;SDS011;2300;51.874;8.430;2023-01-26T12:48:59;75.10;;;39.80;;
4575;SDS011;2300;51.874;8.430;2023-01-26T12:51:31;80.67;;;42.03;;
4575;SDS011;2300;51.874;8.430;2023-01-26T12:54:05;82.40;;;44.80;;
4575;SDS011;2300;51.874;8.430;2023-01-26T12:56:41;75.67;;;44.23;;
4575;SDS011;2300;51.874;8.430;2023-01-26T12:59:13;75.33;;;45.93;;
4575;SDS011;2300;51.874;8.430;2023-01-26T13:01:43;80.60;;;46.60;;
4575;SDS011;2300;51.874;8.430;2023-01-26T13:04:10;81.13;;;46.23;;
4575;SDS011;2300;51.874;8.430;2023-01-26T13:06:40;86.33;;;51.73;;
4575;SDS011;2300;51.874;8.430;2023-01-26T13:09:18;85.93;;;51.77;;
4575;SDS011;2300;51.874;8.430;2023-01-26T13:11:48;78.43;;;45.17;;
4575;SDS011;2300;51.874;8.430;2023-01-26T13:14:23;77.57;;;53.70;;
4575;SDS011;2300;51.874;8.430;2023-01-26T13:16:52;75.10;;;52.13;;
4575;SDS011;2300;51.874;8.430;2023-01-26T13:19:34;77.93;;;52.43;;
4575;SDS011;2300;51.874;8.430;2023-01-26T13:22:07;78.27;;;61.03;;
4575;SDS011;2300;51.874;8.430;2023-01-26T13:25:11;66.87;;;46.87;;
4575;SDS011;2300;51.874;8.430;2023-01-26T13:27:40;68.73;;;46.60;;
4575;SDS011;2300;51.874;8.430;2023-01-26T13:30:27;61.03;;;43.67;;
4575;SDS011;2300;51.874;8.430;2023-01-26T13:33:16;65.87;;;44.73;;
4575;SDS011;2300;51.874;8.430;2023-01-26T13:35:47;61.77;;;45.03;;
4575;SDS011;2300;51.874;8.430;2023-01-26T13:38:19;65.90;;;45.60;;
4575;SDS011;2300;51.874;8.430;2023-01-26T13:40:52;71.30;;;47.33;;
4575;SDS011;2300;51.874;8.430;2023-01-26T13:43:24;69.67;;;51.77;;
4575;SDS011;2300;51.874;8.430;2023-01-26T13:46:05;67.00;;;50.77;;
4575;SDS011;2300;51.874;8.430;2023-01-26T13:48:41;74.00;;;54.63;;
4575;SDS011;2300;51.874;8.430;2023-01-26T13:51:11;73.60;;;53.20;;
4575;SDS011;2300;51.874;8.430;2023-01-26T13:53:42;73.77;;;54.83;;
4575;SDS011;2300;51.874;8.430;2023-01-26T13:56:19;69.23;;;48.90;;
4575;SDS011;2300;51.874;8.430;2023-01-26T13:58:51;83.03;;;55.50;;
4575;SDS011;2300;51.874;8.430;2023-01-26T14:01:18;76.83;;;55.87;;
4575;SDS011;2300;51.874;8.430;2023-01-26T14:03:45;67.40;;;49.70;;
4575;SDS011;2300;51.874;8.430;2023-01-26T14:06:12;74.47;;;53.83;;
4575;SDS011;2300;51.874;8.430;2023-01-26T14:08:43;75.47;;;57.00;;
4575;SDS011;2300;51.874;8.430;2023-01-26T14:11:16;77.87;;;52.93;;
4575;SDS011;2300;51.874;8.430;2023-01-26T14:13:47;69.00;;;55.90;;
4575;SDS011;2300;51.874;8.430;2023-01-26T14:16:20;81.10;;;59.47;;
4575;SDS011;2300;51.874;8.430;2023-01-26T14:18:49;78.23;;;65.07;;
4575;SDS011;2300;51.874;8.430;2023-01-26T14:21:16;68.60;;;52.70;;
4575;SDS011;2300;51.874;8.430;2023-01-26T14:23:49;66.57;;;53.43;;
4575;SDS011;2300;51.874;8.430;2023-01-26T14:26:19;62.33;;;52.77;;
4575;SDS011;2300;51.874;8.430;2023-01-26T14:28:49;65.67;;;58.20;;
4575;SDS011;2300;51.874;8.430;2023-01-26T14:31:18;63.93;;;54.97;;
4575;SDS011;2300;51.874;8.430;2023-01-26T14:33:48;91.77;;;66.60;;
4575;SDS011;2300;51.874;8.430;2023-01-26T14:36:18;87.00;;;68.50;;
4575;SDS011;2300;51.874;8.430;2023-01-26T14:38:47;66.97;;;51.50;;
4575;SDS011;2300;51.874;8.430;2023-01-26T14:41:16;67.60;;;56.40;;
4575;SDS011;2300;51.874;8.430;2023-01-26T14:43:44;70.70;;;57.27;;
4575;SDS011;2300;51.874;8.430;2023-01-26T14:46:12;63.30;;;56.67;;
4575;SDS011;2300;51.874;8.430;2023-01-26T14:48:43;68.23;;;53.87;;
4575;SDS011;2300;51.874;8.430;2023-01-26T14:51:14;70.17;;;59.57;;
4575;SDS011;2300;51.874;8.430;2023-01-26T14:53:49;68.40;;;60.97;;
4575;SDS011;2300;51.874;8.430;2023-01-26T14:56:19;61.87;;;54.47;;
4575;SDS011;2300;51.874;8.430;2023-01-26T14:58:51;63.70;;;56.80;;
4575;SDS011;2300;51.874;8.430;2023-01-26T15:01:19;64.13;;;57.33;;